createdAt,value
2022-12-31T00:01:12.265Z,13.96
2022-12-31T00:03:40.803Z,13.99
2022-12-31T00:06:31.361Z,13.93
2022-12-31T00:09:01.420Z,14.03
2022-12-31T00:11:31.236Z,13.95
2022-12-31T00:13:59.287Z,13.96
2022-12-31T00:16:31.505Z,13.90
2022-12-31T00:19:01.270Z,13.89
2022-12-31T00:21:32.121Z,13.87
2022-12-31T00:24:00.100Z,13.88
2022-12-31T00:26:32.969Z,13.89
2022-12-31T00:29:02.080Z,13.87
2022-12-31T00:31:32.020Z,13.89
2022-12-31T00:34:00.309Z,13.88
2022-12-31T00:36:32.476Z,13.92
2022-12-31T00:39:02.083Z,13.90
2022-12-31T00:41:30.169Z,13.86
2022-12-31T00:43:58.047Z,13.90
2022-12-31T00:46:26.873Z,13.87
2022-12-31T00:48:55.069Z,13.82
2022-12-31T00:51:27.678Z,13.80
2022-12-31T00:53:57.403Z,13.77
2022-12-31T00:56:29.395Z,13.76
2022-12-31T00:58:57.815Z,13.78
2022-12-31T01:01:30.033Z,13.69
2022-12-31T01:04:13.867Z,13.71
2022-12-31T01:06:43.438Z,13.74
2022-12-31T01:09:13.885Z,13.76
2022-12-31T01:11:42.273Z,13.71
2022-12-31T01:14:17.615Z,13.72
2022-12-31T01:16:52.208Z,13.72
2022-12-31T01:19:27.335Z,13.76
2022-12-31T01:21:56.527Z,13.77
2022-12-31T01:24:24.109Z,13.78
2022-12-31T01:26:52.231Z,13.72
2022-12-31T01:29:19.834Z,13.75
2022-12-31T01:31:47.735Z,13.72
2022-12-31T01:34:15.292Z,13.81
2022-12-31T01:36:43.100Z,13.73
2022-12-31T01:39:12.270Z,13.76
2022-12-31T01:41:42.835Z,13.71
2022-12-31T01:44:13.050Z,13.65
2022-12-31T01:47:01.141Z,13.61
2022-12-31T01:49:51.492Z,13.61
2022-12-31T01:52:38.520Z,13.60
2022-12-31T01:55:31.975Z,13.62
2022-12-31T01:58:19.787Z,13.64
2022-12-31T02:00:48.249Z,13.67
2022-12-31T02:03:16.275Z,13.66
2022-12-31T02:05:58.465Z,13.68
2022-12-31T02:08:26.291Z,13.64
2022-12-31T02:10:53.842Z,13.66
2022-12-31T02:13:22.056Z,13.61
2022-12-31T02:16:12.569Z,13.65
2022-12-31T02:18:56.334Z,13.61
2022-12-31T02:21:41.487Z,13.69
2022-12-31T02:24:31.577Z,13.67
2022-12-31T02:27:10.059Z,13.63
2022-12-31T02:30:08.643Z,13.62
2022-12-31T02:32:56.326Z,13.61
2022-12-31T02:35:45.944Z,13.63
2022-12-31T02:38:26.935Z,13.62
2022-12-31T02:40:55.262Z,13.65
2022-12-31T02:43:23.969Z,13.66
2022-12-31T02:46:42.563Z,13.70
2022-12-31T02:50:03.251Z,13.73
2022-12-31T02:52:59.027Z,13.68
2022-12-31T02:55:42.031Z,13.60
2022-12-31T02:58:57.353Z,13.52
2022-12-31T03:01:51.669Z,13.34
2022-12-31T03:04:33.415Z,13.25
2022-12-31T03:07:11.492Z,13.16
2022-12-31T03:09:39.782Z,13.08
2022-12-31T03:12:29.474Z,12.95
2022-12-31T03:14:58.114Z,12.73
2022-12-31T03:17:26.443Z,12.57
2022-12-31T03:20:12.954Z,12.41
2022-12-31T03:22:43.210Z,12.24
2022-12-31T03:25:35.768Z,12.21
2022-12-31T03:28:15.638Z,12.19
2022-12-31T03:30:49.353Z,12.15
2022-12-31T03:33:17.525Z,12.13
2022-12-31T03:35:48.037Z,12.22
2022-12-31T03:38:16.839Z,12.34
2022-12-31T03:40:49.177Z,12.60
2022-12-31T03:43:16.979Z,12.78
2022-12-31T03:45:47.776Z,12.91
2022-12-31T03:48:15.266Z,13.12
2022-12-31T03:50:43.067Z,13.09
2022-12-31T03:53:11.400Z,13.22
2022-12-31T03:55:39.323Z,13.26
2022-12-31T03:58:07.035Z,13.35
2022-12-31T04:00:35.242Z,13.33
2022-12-31T04:03:02.821Z,13.37
2022-12-31T04:05:31.332Z,13.45
2022-12-31T04:07:58.832Z,13.53
2022-12-31T04:10:26.714Z,13.53
2022-12-31T04:12:54.255Z,13.64
2022-12-31T04:15:22.417Z,13.65
2022-12-31T04:17:49.924Z,13.68
2022-12-31T04:20:17.826Z,13.66
2022-12-31T04:22:45.347Z,13.67
2022-12-31T04:25:13.504Z,13.70
2022-12-31T04:27:43.777Z,13.71
2022-12-31T04:30:14.156Z,13.71
2022-12-31T04:32:42.205Z,13.70
2022-12-31T04:35:11.730Z,13.71
2022-12-31T04:37:39.806Z,13.68
2022-12-31T04:40:12.100Z,13.72
2022-12-31T04:42:41.385Z,13.65
2022-12-31T04:45:09.905Z,13.71
2022-12-31T04:47:37.692Z,13.69
2022-12-31T04:50:06.574Z,13.69
2022-12-31T04:52:38.737Z,13.70
2022-12-31T04:55:12.032Z,13.77
2022-12-31T04:57:41.473Z,13.72
2022-12-31T05:00:10.361Z,13.74
2022-12-31T05:02:38.294Z,13.74
2022-12-31T05:05:07.155Z,13.57
2022-12-31T05:07:35.187Z,13.33
2022-12-31T05:10:04.211Z,13.08
2022-12-31T05:12:31.846Z,12.89
2022-12-31T05:14:59.781Z,12.67
2022-12-31T05:17:27.271Z,12.48
2022-12-31T05:19:55.275Z,12.26
2022-12-31T05:22:31.942Z,12.09
2022-12-31T05:25:01.745Z,11.96
2022-12-31T05:27:33.318Z,11.90
2022-12-31T05:30:01.273Z,11.88
2022-12-31T05:32:29.284Z,12.00
2022-12-31T05:34:59.716Z,12.06
2022-12-31T05:37:31.351Z,12.10
2022-12-31T05:39:59.654Z,12.17
2022-12-31T05:42:27.848Z,12.27
2022-12-31T05:44:55.835Z,12.42
2022-12-31T05:47:25.108Z,12.56
2022-12-31T05:49:53.847Z,12.72
2022-12-31T05:52:22.647Z,12.87
2022-12-31T05:54:50.714Z,13.01
2022-12-31T05:57:18.767Z,13.17
2022-12-31T05:59:46.762Z,13.31
2022-12-31T06:02:14.318Z,13.42
2022-12-31T06:04:42.211Z,13.49
2022-12-31T06:07:09.803Z,13.53
2022-12-31T06:09:37.660Z,13.58
2022-12-31T06:12:06.288Z,13.72
2022-12-31T06:14:34.836Z,13.72
2022-12-31T06:17:03.447Z,13.74
2022-12-31T06:19:31.496Z,13.80
2022-12-31T06:21:59.081Z,13.86
2022-12-31T06:24:26.943Z,13.96
2022-12-31T06:26:54.591Z,13.93
2022-12-31T06:29:22.451Z,14.00
2022-12-31T06:31:49.912Z,14.01
2022-12-31T06:34:17.936Z,14.01
2022-12-31T06:36:45.545Z,13.99
2022-12-31T06:39:13.382Z,14.06
2022-12-31T06:41:41.070Z,14.11
2022-12-31T06:44:08.941Z,14.13
2022-12-31T06:46:36.523Z,14.10
2022-12-31T06:49:04.374Z,14.12
2022-12-31T06:51:31.909Z,14.15
2022-12-31T06:53:59.803Z,14.16
2022-12-31T06:56:34.404Z,14.19
2022-12-31T06:59:05.087Z,14.26
2022-12-31T07:02:01.143Z,14.31
2022-12-31T07:04:55.839Z,14.24
2022-12-31T07:08:06.383Z,13.94
2022-12-31T07:11:04.373Z,13.56
2022-12-31T07:14:22.034Z,13.17
2022-12-31T07:16:59.865Z,12.96
2022-12-31T07:20:01.108Z,12.99
2022-12-31T07:22:29.801Z,13.14
2022-12-31T07:24:57.946Z,13.35
2022-12-31T07:27:53.135Z,13.57
2022-12-31T07:30:24.555Z,13.70
2022-12-31T07:33:20.392Z,13.90
2022-12-31T07:36:29.079Z,14.06
2022-12-31T07:39:02.431Z,14.19
2022-12-31T07:41:47.848Z,14.25
2022-12-31T07:44:24.873Z,14.37
2022-12-31T07:47:01.813Z,14.48
2022-12-31T07:49:33.484Z,14.57
2022-12-31T07:52:04.716Z,14.72
2022-12-31T07:54:32.783Z,14.80
2022-12-31T07:57:01.151Z,14.86
2022-12-31T08:00:05.651Z,15.01
2022-12-31T08:03:11.924Z,15.17
2022-12-31T08:05:50.910Z,15.43
2022-12-31T08:08:29.515Z,15.50
2022-12-31T08:12:09.053Z,15.42
2022-12-31T08:14:54.712Z,15.19
2022-12-31T08:17:23.179Z,14.96
2022-12-31T08:19:51.389Z,14.75
2022-12-31T08:22:41.456Z,14.54
2022-12-31T08:42:48.443Z,13.91
2022-12-31T08:45:53.146Z,13.87
2022-12-31T08:48:47.906Z,13.80
2022-12-31T08:51:25.687Z,13.69
2022-12-31T08:53:55.397Z,13.60
2022-12-31T08:56:50.195Z,13.48
2022-12-31T08:59:34.124Z,13.40
2022-12-31T09:02:08.330Z,13.38
2022-12-31T09:05:05.801Z,13.33
2022-12-31T09:07:50.856Z,13.34
2022-12-31T09:11:08.891Z,13.37
2022-12-31T09:14:02.543Z,13.38
2022-12-31T09:17:17.988Z,13.46
2022-12-31T09:19:46.390Z,13.54
2022-12-31T09:22:14.408Z,13.65
2022-12-31T09:24:42.648Z,13.76
2022-12-31T09:27:46.285Z,13.90
2022-12-31T09:30:17.859Z,14.04
2022-12-31T09:33:17.591Z,14.18
2022-12-31T09:35:56.096Z,14.34
2022-12-31T09:38:37.421Z,14.50
2022-12-31T09:41:25.470Z,14.68
2022-12-31T09:44:20.676Z,14.87
2022-12-31T09:47:46.489Z,15.12
2022-12-31T09:50:29.105Z,15.25
2022-12-31T09:53:19.013Z,15.34
2022-12-31T09:56:14.485Z,15.37
2022-12-31T09:58:48.472Z,15.36
2022-12-31T10:01:45.299Z,15.37
2022-12-31T10:04:42.826Z,15.35
2022-12-31T10:07:15.765Z,15.34
2022-12-31T10:10:14.522Z,15.34
2022-12-31T10:13:03.315Z,15.31
2022-12-31T10:16:12.012Z,15.28
2022-12-31T10:18:53.852Z,15.31
2022-12-31T10:21:36.592Z,15.34
2022-12-31T10:24:34.131Z,15.38
2022-12-31T10:27:36.737Z,15.44
2022-12-31T10:30:24.211Z,15.49
2022-12-31T10:33:20.964Z,15.52
2022-12-31T10:36:28.788Z,15.54
2022-12-31T10:39:26.909Z,15.57
2022-12-31T10:42:25.326Z,15.62
2022-12-31T10:45:19.756Z,15.65
2022-12-31T10:48:05.210Z,15.69
2022-12-31T10:51:26.282Z,15.81
2022-12-31T10:54:28.075Z,15.91
2022-12-31T10:57:20.619Z,16.07
2022-12-31T11:00:11.585Z,16.20
2022-12-31T11:02:58.159Z,16.28
2022-12-31T11:05:56.249Z,16.34
2022-12-31T11:09:02.261Z,16.34
2022-12-31T11:12:00.781Z,16.29
2022-12-31T11:14:39.877Z,16.30
2022-12-31T11:17:45.615Z,16.30
2022-12-31T11:20:23.862Z,16.33
2022-12-31T11:23:38.796Z,16.41
2022-12-31T11:26:32.174Z,16.37
2022-12-31T11:29:25.798Z,16.39
2022-12-31T11:32:13.091Z,16.48
2022-12-31T11:35:10.154Z,16.58
2022-12-31T11:37:47.553Z,16.66
2022-12-31T11:40:59.369Z,16.75
2022-12-31T11:43:50.125Z,16.86
2022-12-31T11:46:39.259Z,17.04
2022-12-31T11:49:34.307Z,17.22
2022-12-31T11:52:41.713Z,17.44
2022-12-31T11:55:38.255Z,17.66
2022-12-31T11:58:20.470Z,17.88
2022-12-31T12:01:21.252Z,18.16
2022-12-31T12:03:49.415Z,18.34
2022-12-31T12:06:24.950Z,18.50
2022-12-31T12:08:55.968Z,18.75
2022-12-31T12:11:29.934Z,18.93
2022-12-31T12:13:58.055Z,19.14
2022-12-31T12:16:28.380Z,19.28
2022-12-31T12:19:07.315Z,19.46
2022-12-31T12:21:35.082Z,19.59
2022-12-31T12:24:17.182Z,19.78
2022-12-31T12:26:45.591Z,20.03
2022-12-31T12:29:32.249Z,20.21
2022-12-31T12:32:15.041Z,20.15
2022-12-31T12:34:49.155Z,20.13
2022-12-31T12:37:34.712Z,20.05
2022-12-31T12:40:19.051Z,19.96
2022-12-31T12:42:51.379Z,19.92
2022-12-31T12:45:30.255Z,19.92
2022-12-31T12:48:01.208Z,19.85
2022-12-31T12:50:46.952Z,19.83
2022-12-31T12:53:42.706Z,19.85
2022-12-31T12:56:31.966Z,19.90
2022-12-31T12:59:37.854Z,19.98
2022-12-31T13:02:48.861Z,20.06
2022-12-31T13:05:46.650Z,20.12
2022-12-31T13:08:29.041Z,20.28
2022-12-31T13:11:32.828Z,20.30
2022-12-31T13:14:22.313Z,20.43
2022-12-31T13:17:31.380Z,20.52
2022-12-31T13:20:22.803Z,20.68
2022-12-31T13:23:27.588Z,20.82
2022-12-31T13:26:27.002Z,20.89
2022-12-31T13:28:56.746Z,20.99
2022-12-31T13:31:33.876Z,21.08
2022-12-31T13:34:13.299Z,21.19
2022-12-31T13:36:45.085Z,21.27
2022-12-31T13:39:32.333Z,21.28
2022-12-31T13:42:24.496Z,21.23
2022-12-31T13:45:00.913Z,21.13
2022-12-31T13:47:42.308Z,20.93
2022-12-31T13:50:36.480Z,20.72
2022-12-31T13:53:37.134Z,20.49
2022-12-31T13:56:21.983Z,20.17
2022-12-31T13:59:00.509Z,19.91
2022-12-31T14:01:34.454Z,19.65
2022-12-31T14:04:18.962Z,19.38
2022-12-31T14:07:32.229Z,19.13
2022-12-31T14:10:03.400Z,18.88
2022-12-31T14:13:10.285Z,18.72
2022-12-31T14:16:21.034Z,18.52
2022-12-31T14:19:08.922Z,18.31
2022-12-31T14:22:09.628Z,18.18
2022-12-31T14:24:51.151Z,18.01
2022-12-31T14:27:43.319Z,17.82
2022-12-31T14:30:19.512Z,17.64
2022-12-31T14:33:04.999Z,17.42
2022-12-31T14:36:10.370Z,17.24
2022-12-31T14:38:45.510Z,17.05
2022-12-31T14:42:12.490Z,16.87
2022-12-31T14:45:35.851Z,16.74
2022-12-31T14:48:26.104Z,16.60
2022-12-31T14:50:55.063Z,16.47
2022-12-31T14:53:26.915Z,16.41
2022-12-31T14:56:40.198Z,16.37
2022-12-31T15:00:21.271Z,16.38
2022-12-31T15:02:53.497Z,16.37
2022-12-31T15:05:25.703Z,16.38
2022-12-31T15:08:14.256Z,16.43
2022-12-31T15:11:26.788Z,16.42
2022-12-31T15:14:33.697Z,16.41
2022-12-31T15:17:43.872Z,16.34
2022-12-31T15:20:35.389Z,16.18
2022-12-31T15:23:11.891Z,16.05
2022-12-31T15:25:41.620Z,15.91
2022-12-31T15:28:35.699Z,15.79
2022-12-31T15:31:19.158Z,15.70
2022-12-31T15:34:34.895Z,15.60
2022-12-31T15:37:07.150Z,15.59
2022-12-31T15:39:34.945Z,15.61
2022-12-31T15:42:36.882Z,15.67
2022-12-31T15:45:00.620Z,15.72
2022-12-31T15:47:41.631Z,15.74
2022-12-31T15:50:22.595Z,15.76
2022-12-31T15:53:00.928Z,15.78
2022-12-31T15:55:50.969Z,15.78
2022-12-31T15:58:26.381Z,15.78
2022-12-31T16:01:24.830Z,15.82
2022-12-31T16:04:14.280Z,15.83
2022-12-31T16:06:48.931Z,15.83
2022-12-31T16:09:39.892Z,15.84
2022-12-31T16:12:30.798Z,15.84
2022-12-31T16:15:00.623Z,15.83
2022-12-31T16:17:31.165Z,15.82
2022-12-31T16:20:01.552Z,15.82
2022-12-31T16:22:38.437Z,15.85
2022-12-31T16:25:32.341Z,15.88
2022-12-31T16:28:03.739Z,15.89
2022-12-31T16:30:36.399Z,15.91
2022-12-31T16:33:12.569Z,15.91
2022-12-31T16:35:40.480Z,15.92
2022-12-31T16:38:19.590Z,15.91
2022-12-31T16:41:02.482Z,15.91
2022-12-31T16:43:43.248Z,15.89
2022-12-31T16:46:28.902Z,15.90
2022-12-31T16:49:03.053Z,15.92
2022-12-31T16:51:33.892Z,15.92
2022-12-31T16:54:02.766Z,15.95
2022-12-31T16:56:38.137Z,15.92
2022-12-31T16:59:40.175Z,15.92
2022-12-31T17:02:20.951Z,15.92
2022-12-31T17:04:55.899Z,15.94
2022-12-31T17:07:32.624Z,15.94
2022-12-31T17:10:09.458Z,15.95
2022-12-31T17:13:25.324Z,15.94
2022-12-31T17:15:43.446Z,15.91
2022-12-31T17:18:38.704Z,15.89
2022-12-31T17:21:10.168Z,15.89
2022-12-31T17:23:39.928Z,15.88
2022-12-31T17:26:14.971Z,15.88
2022-12-31T17:28:52.894Z,15.88
2022-12-31T17:31:43.236Z,15.89
2022-12-31T17:34:13.503Z,15.89
2022-12-31T17:37:15.889Z,15.88
2022-12-31T17:39:54.666Z,15.86
2022-12-31T17:42:34.487Z,15.86
2022-12-31T17:45:28.023Z,15.88
2022-12-31T17:48:00.519Z,15.93
2022-12-31T17:50:28.745Z,15.95
2022-12-31T17:53:11.677Z,15.97
2022-12-31T17:55:39.655Z,15.98
2022-12-31T17:58:08.139Z,15.98
2022-12-31T18:00:37.756Z,16.00
2022-12-31T18:03:05.706Z,16.02
2022-12-31T18:05:33.330Z,16.03
2022-12-31T18:08:01.142Z,15.98
2022-12-31T18:10:35.315Z,15.91
2022-12-31T18:13:07.065Z,15.85
2022-12-31T18:15:34.677Z,15.77
2022-12-31T18:18:12.270Z,15.74
2022-12-31T18:20:39.890Z,15.69
2022-12-31T18:23:17.780Z,15.65
2022-12-31T18:28:13.239Z,15.57
2022-12-31T18:30:41.043Z,15.53
2022-12-31T18:33:12.955Z,15.50
2022-12-31T18:36:07.828Z,15.48
2022-12-31T18:38:30.840Z,15.46
2022-12-31T18:40:59.527Z,15.43
2022-12-31T18:43:27.556Z,15.41
2022-12-31T18:45:55.126Z,15.48
2022-12-31T18:48:23.011Z,15.58
2022-12-31T18:50:51.074Z,15.66
2022-12-31T18:53:22.805Z,15.69
2022-12-31T18:55:56.821Z,15.73
2022-12-31T18:58:24.895Z,15.71
2022-12-31T19:00:52.986Z,15.68
2022-12-31T19:03:24.299Z,15.62
2022-12-31T19:05:52.430Z,15.57
2022-12-31T19:08:22.756Z,15.52
2022-12-31T19:10:52.308Z,15.49
2022-12-31T19:13:20.910Z,15.48
2022-12-31T19:15:52.250Z,15.50
2022-12-31T19:18:20.357Z,15.54
2022-12-31T19:20:48.037Z,15.59
2022-12-31T19:23:20.615Z,15.68
2022-12-31T19:25:49.794Z,15.74
2022-12-31T19:28:18.724Z,15.76
2022-12-31T19:30:46.603Z,15.71
2022-12-31T19:33:15.268Z,15.71
2022-12-31T19:35:43.676Z,15.72
2022-12-31T19:38:25.478Z,15.72
2022-12-31T19:40:54.130Z,15.70
2022-12-31T19:43:23.719Z,15.65
2022-12-31T19:45:51.832Z,15.56
2022-12-31T19:48:32.074Z,15.45
2022-12-31T19:51:00.650Z,15.42
2022-12-31T19:53:28.855Z,15.41
2022-12-31T19:55:57.043Z,15.40
2022-12-31T19:58:27.209Z,15.43
2022-12-31T20:01:01.922Z,15.45
2022-12-31T20:03:32.764Z,15.48
2022-12-31T20:06:09.898Z,15.50
2022-12-31T20:08:39.963Z,15.53
2022-12-31T20:11:18.138Z,15.53
2022-12-31T20:13:48.368Z,15.62
2022-12-31T20:16:19.673Z,15.64
2022-12-31T20:18:48.453Z,15.68
2022-12-31T20:21:23.225Z,15.74
2022-12-31T20:23:53.534Z,15.74
2022-12-31T20:26:24.161Z,15.77
2022-12-31T20:28:53.177Z,15.75
2022-12-31T20:31:25.276Z,15.76
2022-12-31T20:33:54.789Z,15.77
2022-12-31T20:36:23.144Z,15.78
2022-12-31T20:38:51.329Z,15.78
2022-12-31T20:41:21.921Z,15.78
2022-12-31T20:43:50.910Z,15.80
2022-12-31T20:46:24.955Z,15.81
2022-12-31T20:48:55.598Z,15.76
2022-12-31T20:51:24.652Z,15.77
2022-12-31T20:54:00.538Z,15.77
2022-12-31T20:56:32.183Z,15.69
2022-12-31T20:59:01.303Z,15.69
2022-12-31T21:01:47.805Z,15.70
2022-12-31T21:04:17.454Z,15.74
2022-12-31T21:06:45.409Z,15.73
2022-12-31T21:09:14.106Z,15.75
2022-12-31T21:12:00.423Z,15.76
2022-12-31T21:14:29.148Z,15.76
2022-12-31T21:16:56.691Z,15.73
2022-12-31T21:19:24.625Z,15.71
2022-12-31T21:21:52.299Z,15.71
2022-12-31T21:24:23.870Z,15.67
2022-12-31T21:26:55.229Z,15.63
2022-12-31T21:29:23.700Z,15.59
2022-12-31T21:31:51.357Z,15.56
2022-12-31T21:34:19.268Z,15.53
2022-12-31T21:36:46.883Z,15.49
2022-12-31T21:39:14.850Z,15.47
2022-12-31T21:41:51.406Z,15.47
2022-12-31T21:44:22.003Z,15.43
2022-12-31T21:47:33.261Z,15.42
2022-12-31T21:49:44.667Z,15.42
2022-12-31T21:52:34.035Z,15.43
2022-12-31T21:55:24.076Z,15.42
2022-12-31T21:58:24.743Z,15.44
2022-12-31T22:00:59.172Z,15.46
2022-12-31T22:03:29.557Z,15.52
2022-12-31T22:06:12.512Z,15.44
2022-12-31T22:08:45.411Z,15.23
2022-12-31T22:11:15.254Z,15.04
2022-12-31T22:13:42.836Z,14.81
2022-12-31T22:16:13.245Z,14.57
2022-12-31T22:18:44.069Z,14.40
2022-12-31T22:21:22.217Z,14.26
2022-12-31T22:23:53.297Z,14.13
2022-12-31T22:26:25.866Z,14.08
2022-12-31T22:28:59.087Z,14.03
2022-12-31T22:31:30.278Z,13.98
2022-12-31T22:33:58.820Z,13.93
2022-12-31T22:36:26.942Z,13.92
2022-12-31T22:38:59.421Z,13.90
2022-12-31T22:41:28.585Z,13.81
2022-12-31T22:44:03.693Z,13.76
2022-12-31T22:46:33.542Z,13.69
2022-12-31T22:49:03.965Z,13.62
2022-12-31T22:51:56.390Z,13.55
2022-12-31T22:54:20.797Z,13.46
2022-12-31T22:56:48.975Z,13.39
2022-12-31T22:59:16.590Z,13.35
2022-12-31T23:01:44.651Z,13.31
2022-12-31T23:04:12.334Z,13.27
2022-12-31T23:06:44.238Z,13.20
2022-12-31T23:09:32.559Z,13.14
2022-12-31T23:12:01.504Z,13.02
2022-12-31T23:14:47.735Z,12.92
2022-12-31T23:17:38.818Z,12.85
2022-12-31T23:20:32.259Z,12.80
2022-12-31T23:23:12.849Z,12.76
2022-12-31T23:25:44.504Z,12.67
2022-12-31T23:28:20.138Z,12.59
2022-12-31T23:30:47.957Z,12.52
2022-12-31T23:33:22.841Z,12.46
2022-12-31T23:35:50.903Z,12.36
2022-12-31T23:38:19.180Z,12.34
2022-12-31T23:40:46.756Z,12.27
2022-12-31T23:43:21.876Z,12.23
2022-12-31T23:45:51.483Z,12.18
2022-12-31T23:48:19.586Z,12.16
2022-12-31T23:50:53.577Z,12.17
2022-12-31T23:53:25.098Z,12.17
2022-12-31T23:55:53.762Z,12.21
2022-12-31T23:58:22.456Z,12.21
